Main page
METAR-TAF:

METAR-TAF

Airports :

Rabat–Salé Airport

Rabat, Morocco

latitude: 34-03N, longitude: 006-46W, elevation: 84 m

Current weather observation

The report was made 21 minutes ago, at 19:00 UTC
Wind 4 kt from the North/Northeast
Temperature 11°C
Humidity 94%
Pressure 1026 hPa
Visibility: 8000 m

METAR: GMME 271900Z 03004KT 8000 NSC 11/10 Q1026 NOSIG

Time: 20:21 (19:21 UTC)

Forecast

The report was made 2 hours and 21 minutes ago, at 17:00 UTC
Forecast valid from 27 at 18 UTC to 28 at 24 UTC
Wind 10 kt from the North
Visibility: 6000 m
Scattered clouds at a height of 1600 ft
Temporary
from 27 at 20 UTC to 28 at 06 UTC
Wind 6 kt from the East

TAF: GMME 271700Z 2718/2824 35010KT 6000 SCT016 TEMPO 2720/2806 09006KT

Weather observations and forecasts of more than 4000 airports (METAR and TAF reports).

The available stations are represented by yellow and red dots on the map.

Hover mouse over dot to see the name of the station.

Then click to see weather observations and forecasts.

To change the map : click on the green buttons with a black cross to zoom in, on the green button with a dash to zoom out, or on the green arrows for adjacent maps.


METAR-TAF: